Maersk Kure — D5MA7 — position and weather

sailwx.info

Track history (hours):
 
Tides and Currents Weather Stations Pressure Air Temp Water Temp Dewpoint Dewpoint Depression Visibility Wind Speed Wind Dir Waves Ship Positions

Maersk Kure

Last reported at 2018-Feb-19 08:24 UTC. Time now 2018-Feb-25 23:54 UTC.
Position N 01°20' E 103°17'.

Length 318 m; draft 12.8 m.

Type: Ship (hazmat cat D). MMSI: 636017643.

Date/timePositionNaut miles runAvg speedWind from/ knotsBaromVisibWave heightAir tempDewpointWater temp
2018-Feb-19 08:24N 01°20' E 103°17'715.6
2018-Feb-19 07:58N 01°16' E 103°22'714.9
2018-Feb-19 07:30N 01°13' E 103°28'510.3
2018-Feb-19 07:00N 01°16' E 103°33'5 9.0
2018-Feb-19 06:30N 01°20' E 103°33'0 0.3
2018-Feb-19 05:58N 01°21' E 103°33'0 0.1
2018-Feb-19 05:22N 01°21' E 103°33'0 0.2
2018-Feb-19 04:58N 01°21' E 103°33'0 0.0
2018-Feb-19 04:22N 01°21' E 103°33'0 0.0
2018-Feb-19 03:55N 01°21' E 103°33'0 0.0
2018-Feb-19 03:25N 01°21' E 103°33'0 0.0
2018-Feb-19 02:58N 01°21' E 103°33'0 0.0
2018-Feb-19 02:25N 01°21' E 103°33'0 0.0
2018-Feb-19 01:58N 01°21' E 103°33'0 0.0
2018-Feb-19 01:22N 01°21' E 103°33'0 0.0
2018-Feb-19 00:55N 01°21' E 103°33'0 0.0
2018-Feb-18 22:25N 01°21' E 103°33'0 0.0
2018-Feb-18 13:31N 01°21' E 103°33'0 0.0
2018-Feb-18 13:19N 01°21' E 103°33'0 0.0
2018-Feb-18 12:46N 01°21' E 103°33'0 0.0
2018-Feb-18 12:25N 01°21' E 103°33'0 0.0
2018-Feb-18 11:49N 01°21' E 103°33'0 0.0
2018-Feb-18 09:28N 01°21' E 103°33'0 0.0
2018-Feb-18 07:10N 01°21' E 103°33'0 0.1
2018-Feb-18 06:59N 01°21' E 103°33'1 3.0
2018-Feb-18 06:30N 01°19' E 103°33'510.1
2018-Feb-18 06:00N 01°14' E 103°32'4 7.1
2018-Feb-18 05:30N 01°12' E 103°35'611.2
2018-Feb-18 05:00N 01°10' E 103°40'510.9
2018-Feb-18 04:30N 01°09' E 103°46'713.4
2018-Feb-18 03:59N 01°12' E 103°52'713.9
2018-Feb-18 03:30N 01°15' E 103°58'4 7.0
2018-Feb-18 03:00N 01°16' E 104°01'3 5.6
2018-Feb-18 02:27N 01°17' E 104°04'  
2018-Feb-13 07:48N 22°33' E 116°49'3719.2
2018-Feb-13 05:53N 23°03' E 117°13'719.2
2018-Feb-13 05:29N 23°09' E 117°18'919.3
2018-Feb-13 05:00N 23°16' E 117°24'918.6
2018-Feb-13 04:31N 23°23' E 117°31'1019.0
2018-Feb-13 04:00N 23°26' E 117°41'919.0
2018-Feb-13 03:31N 23°31' E 117°50'1019.0
2018-Feb-13 03:00N 23°35' E 117°59'1018.5
2018-Feb-13 02:29N 23°39' E 118°09'918.6
2018-Feb-13 02:00N 23°42' E 118°18'1018.4
2018-Feb-13 01:26N 23°48' E 118°27'818.6
2018-Feb-13 00:59N 23°53' E 118°35'918.6
2018-Feb-13 00:30N 23°56' E 118°44'47516.2
2018-Feb-11 19:13N 31°05' E 122°35'316.2
2018-Feb-11 19:01N 31°06' E 122°31'714.4
2018-Feb-11 18:30N 31°06' E 122°22'1311.9
2018-Feb-11 17:26N 31°12' E 122°09'712.7
2018-Feb-11 16:54N 31°14' E 122°02'615.3
2018-Feb-11 16:30N 31°16' E 121°55'815.2
2018-Feb-11 16:00N 31°18' E 121°46'612.1
2018-Feb-11 15:30N 31°20' E 121°40'0 0.0
2018-Feb-11 03:00N 31°20' E 121°39'0 0.9
2018-Feb-11 02:28N 31°21' E 121°39'1 1.1
2018-Feb-11 01:59N 31°21' E 121°39'4 7.0
2018-Feb-11 01:28N 31°20' E 121°43'510.6
2018-Feb-11 01:00N 31°18' E 121°48'611.7
2018-Feb-11 00:30N 31°16' E 121°54'611.7
2018-Feb-10 23:59N 31°15' E 122°02'610.3
2018-Feb-10 23:24N 31°12' E 122°08'9 8.2
2018-Feb-10 22:20N 31°07' E 122°16'17 0.8
2018-Feb-10 00:56N 31°09' E 122°36'  
Track history (hours):
 
Tides and Currents Weather Stations Pressure Air Temp Water Temp Dewpoint Dewpoint Depression Visibility Wind Speed Wind Dir Waves Ship Positions

Maersk Kure

Last reported at 2018-Feb-19 08:24 UTC. Time now 2018-Feb-25 23:54 UTC.
Position N 01°20' E 103°17'.

Length 318 m; draft 12.8 m.

Type: Ship (hazmat cat D). MMSI: 636017643.

Date/timePositionNaut miles runAvg speedWind from/ knotsBaromVisibWave heightAir tempDewpointWater temp
2018-Feb-19 08:24N 01°20' E 103°17'715.6
2018-Feb-19 07:58N 01°16' E 103°22'714.9
2018-Feb-19 07:30N 01°13' E 103°28'510.3
2018-Feb-19 07:00N 01°16' E 103°33'5 9.0
2018-Feb-19 06:30N 01°20' E 103°33'0 0.3
2018-Feb-19 05:58N 01°21' E 103°33'0 0.1
2018-Feb-19 05:22N 01°21' E 103°33'0 0.2
2018-Feb-19 04:58N 01°21' E 103°33'0 0.0
2018-Feb-19 04:22N 01°21' E 103°33'0 0.0
2018-Feb-19 03:55N 01°21' E 103°33'0 0.0
2018-Feb-19 03:25N 01°21' E 103°33'0 0.0
2018-Feb-19 02:58N 01°21' E 103°33'0 0.0
2018-Feb-19 02:25N 01°21' E 103°33'0 0.0
2018-Feb-19 01:58N 01°21' E 103°33'0 0.0
2018-Feb-19 01:22N 01°21' E 103°33'0 0.0
2018-Feb-19 00:55N 01°21' E 103°33'0 0.0
2018-Feb-18 22:25N 01°21' E 103°33'0 0.0
2018-Feb-18 13:31N 01°21' E 103°33'0 0.0
2018-Feb-18 13:19N 01°21' E 103°33'0 0.0
2018-Feb-18 12:46N 01°21' E 103°33'0 0.0
2018-Feb-18 12:25N 01°21' E 103°33'0 0.0
2018-Feb-18 11:49N 01°21' E 103°33'0 0.0
2018-Feb-18 09:28N 01°21' E 103°33'0 0.0
2018-Feb-18 07:10N 01°21' E 103°33'0 0.1
2018-Feb-18 06:59N 01°21' E 103°33'1 3.0
2018-Feb-18 06:30N 01°19' E 103°33'510.1
2018-Feb-18 06:00N 01°14' E 103°32'4 7.1
2018-Feb-18 05:30N 01°12' E 103°35'611.2
2018-Feb-18 05:00N 01°10' E 103°40'510.9
2018-Feb-18 04:30N 01°09' E 103°46'713.4
2018-Feb-18 03:59N 01°12' E 103°52'713.9
2018-Feb-18 03:30N 01°15' E 103°58'4 7.0
2018-Feb-18 03:00N 01°16' E 104°01'3 5.6
2018-Feb-18 02:27N 01°17' E 104°04'  
2018-Feb-13 07:48N 22°33' E 116°49'3719.2
2018-Feb-13 05:53N 23°03' E 117°13'719.2
2018-Feb-13 05:29N 23°09' E 117°18'919.3
2018-Feb-13 05:00N 23°16' E 117°24'918.6
2018-Feb-13 04:31N 23°23' E 117°31'1019.0
2018-Feb-13 04:00N 23°26' E 117°41'919.0
2018-Feb-13 03:31N 23°31' E 117°50'1019.0
2018-Feb-13 03:00N 23°35' E 117°59'1018.5
2018-Feb-13 02:29N 23°39' E 118°09'918.6
2018-Feb-13 02:00N 23°42' E 118°18'1018.4
2018-Feb-13 01:26N 23°48' E 118°27'818.6
2018-Feb-13 00:59N 23°53' E 118°35'918.6
2018-Feb-13 00:30N 23°56' E 118°44'47516.2
2018-Feb-11 19:13N 31°05' E 122°35'316.2
2018-Feb-11 19:01N 31°06' E 122°31'714.4
2018-Feb-11 18:30N 31°06' E 122°22'1311.9
2018-Feb-11 17:26N 31°12' E 122°09'712.7
2018-Feb-11 16:54N 31°14' E 122°02'615.3
2018-Feb-11 16:30N 31°16' E 121°55'815.2
2018-Feb-11 16:00N 31°18' E 121°46'612.1
2018-Feb-11 15:30N 31°20' E 121°40'0 0.0
2018-Feb-11 03:00N 31°20' E 121°39'0 0.9
2018-Feb-11 02:28N 31°21' E 121°39'1 1.1
2018-Feb-11 01:59N 31°21' E 121°39'4 7.0
2018-Feb-11 01:28N 31°20' E 121°43'510.6
2018-Feb-11 01:00N 31°18' E 121°48'611.7
2018-Feb-11 00:30N 31°16' E 121°54'611.7
2018-Feb-10 23:59N 31°15' E 122°02'610.3
2018-Feb-10 23:24N 31°12' E 122°08'9 8.2
2018-Feb-10 22:20N 31°07' E 122°16'17 0.8
2018-Feb-10 00:56N 31°09' E 122°36'  

Dump ship's entire track history